createdAt,value
2018-11-01T12:25:59.719Z,11.03
2018-11-01T12:30:54.699Z,11.00
2018-11-01T12:35:49.526Z,10.95
2018-11-01T12:40:44.334Z,11.12
2018-11-01T12:45:42.287Z,11.17
2018-11-01T12:50:37.088Z,11.12
2018-11-01T12:55:33.000Z,11.27
2018-11-01T13:00:29.986Z,11.07
2018-11-01T13:05:24.905Z,11.18
2018-11-01T13:10:19.859Z,11.30
2018-11-01T13:15:14.761Z,11.34
2018-11-01T13:20:10.247Z,11.25
2018-11-01T13:25:05.181Z,11.32
2018-11-01T13:29:59.950Z,11.13
2018-11-01T13:34:55.199Z,11.35
2018-11-01T13:39:50.093Z,11.41
2018-11-01T13:44:44.934Z,11.47
2018-11-01T13:49:39.859Z,11.51
2018-11-01T13:54:34.777Z,11.36
2018-11-01T13:59:29.540Z,11.50
2018-11-01T14:04:24.329Z,11.56
2018-11-01T14:09:19.184Z,11.70
2018-11-01T14:14:14.401Z,11.58
2018-11-01T14:19:09.226Z,11.65
2018-11-01T14:24:04.273Z,11.51
2018-11-01T14:28:59.140Z,11.85
2018-11-01T14:33:54.106Z,11.75
2018-11-01T14:38:49.070Z,11.61
2018-11-01T14:43:43.980Z,11.54
2018-11-01T14:48:38.974Z,11.44
2018-11-01T14:53:34.343Z,11.25
2018-11-01T14:58:30.140Z,10.95
2018-11-01T15:03:24.230Z,10.71
2018-11-01T15:08:19.132Z,10.57
2018-11-01T15:13:14.091Z,10.43
2018-11-01T15:18:08.951Z,10.28
2018-11-01T15:23:03.879Z,10.03
2018-11-01T15:27:58.794Z,9.86
2018-11-01T15:32:53.681Z,9.73
2018-11-01T15:37:48.570Z,9.64
2018-11-01T15:42:44.153Z,9.55
2018-11-01T15:47:39.792Z,9.40
2018-11-01T15:52:34.713Z,9.28
2018-11-01T15:57:29.768Z,9.20
2018-11-01T16:02:24.806Z,9.08
2018-11-01T16:07:19.889Z,8.95
2018-11-01T16:12:14.828Z,8.85
2018-11-01T16:17:10.434Z,8.78
2018-11-01T16:22:05.375Z,8.71
2018-11-01T16:27:00.396Z,8.67
2018-11-01T16:31:55.415Z,8.61
2018-11-01T16:36:50.409Z,8.47
2018-11-01T16:41:45.230Z,8.38
2018-11-01T16:46:40.276Z,8.29
2018-11-01T16:51:35.270Z,8.30
2018-11-01T16:56:30.226Z,8.28
2018-11-01T17:01:25.235Z,8.28
2018-11-01T17:06:20.325Z,8.24
2018-11-01T17:11:15.884Z,8.18
2018-11-01T17:16:10.808Z,8.15
2018-11-01T17:21:05.840Z,8.09
2018-11-01T17:26:01.711Z,8.11
2018-11-01T17:30:56.622Z,8.01
2018-11-01T17:35:51.496Z,7.91
2018-11-01T17:40:53.163Z,7.89
2018-11-01T17:45:48.135Z,7.97
2018-11-01T17:50:43.029Z,8.02
2018-11-01T17:55:37.940Z,8.09
2018-11-01T18:00:33.939Z,8.07
2018-11-01T18:05:28.956Z,8.06
2018-11-01T18:10:23.892Z,8.18
2018-11-01T18:15:19.033Z,8.29
2018-11-01T18:20:14.655Z,8.33
2018-11-01T18:25:11.616Z,8.36
2018-11-01T18:30:08.683Z,8.34
2018-11-01T18:35:03.590Z,8.35
2018-11-01T18:39:58.474Z,8.37
2018-11-01T18:44:53.372Z,8.37
2018-11-01T18:49:48.370Z,8.42
2018-11-01T18:54:43.667Z,8.48
2018-11-01T18:59:38.452Z,8.55
2018-11-01T19:04:33.344Z,8.47
2018-11-01T19:09:28.723Z,8.50
2018-11-01T19:14:24.137Z,8.43
2018-11-01T19:19:19.137Z,8.30
2018-11-01T19:24:14.157Z,8.18
2018-11-01T19:29:09.326Z,8.10
2018-11-01T19:34:04.581Z,7.98
2018-11-01T19:38:59.563Z,7.86
2018-11-01T19:43:54.520Z,7.87
2018-11-01T19:48:49.486Z,7.89
2018-11-01T19:53:44.415Z,7.89
2018-11-01T19:58:39.398Z,7.90
2018-11-01T20:03:34.522Z,7.86
2018-11-01T20:08:29.888Z,7.79
2018-11-01T20:13:25.083Z,7.74
2018-11-01T20:18:19.996Z,7.67
2018-11-01T20:23:15.422Z,7.59
2018-11-01T20:28:10.404Z,7.57
2018-11-01T20:33:05.475Z,7.54
2018-11-01T20:38:00.721Z,7.48
2018-11-01T20:42:55.555Z,7.45
2018-11-01T20:47:50.865Z,7.38
2018-11-01T20:52:45.803Z,7.27
2018-11-01T20:57:40.812Z,7.24
2018-11-01T21:02:36.127Z,7.30
2018-11-01T21:07:31.040Z,7.29
2018-11-01T21:12:26.176Z,7.23
2018-11-01T21:17:21.477Z,7.24
2018-11-01T21:22:16.373Z,7.26
2018-11-01T21:27:11.577Z,7.24
2018-11-01T21:32:07.730Z,7.23
2018-11-01T21:37:02.619Z,7.23
2018-11-01T21:41:57.875Z,7.02
2018-11-01T21:46:52.839Z,6.94
2018-11-01T21:51:48.156Z,6.98
2018-11-01T21:56:43.056Z,7.01
2018-11-01T22:01:37.929Z,6.98
2018-11-01T22:06:32.943Z,6.92
2018-11-01T22:11:27.887Z,6.89
2018-11-01T22:16:22.807Z,6.71
2018-11-01T22:21:17.930Z,6.73
2018-11-01T22:26:13.667Z,6.80
2018-11-01T22:31:08.699Z,6.85
2018-11-01T22:36:03.687Z,6.73
2018-11-01T22:40:58.584Z,6.51
2018-11-01T22:45:53.480Z,6.52
2018-11-01T22:50:48.456Z,6.50
2018-11-01T22:55:43.710Z,6.56
2018-11-01T23:00:42.940Z,6.59
2018-11-01T23:05:37.855Z,6.63
2018-11-01T23:10:32.821Z,6.68
2018-11-01T23:15:27.718Z,6.68
2018-11-01T23:20:22.598Z,6.50
2018-11-01T23:25:17.560Z,6.56
2018-11-01T23:30:12.548Z,6.32
2018-11-01T23:35:07.756Z,6.40
2018-11-01T23:40:07.663Z,6.37
2018-11-01T23:45:07.513Z,6.32
2018-11-01T23:50:07.261Z,6.27
2018-11-01T23:55:02.237Z,6.03
2018-11-01T23:59:57.148Z,5.81
